createdAt,value
2017-02-09T08:28:56.496Z,13.10
2017-02-09T08:29:14.511Z,13.20
2017-02-09T08:30:12.236Z,13.50
2017-02-09T08:31:12.196Z,13.90
2017-02-09T08:32:13.302Z,14.30
2017-02-09T08:33:13.343Z,14.50
2017-02-09T08:34:12.315Z,14.80
2017-02-09T08:35:12.230Z,15.00
2017-02-09T08:36:12.502Z,15.20
2017-02-09T08:37:12.773Z,15.30
2017-02-09T08:38:12.802Z,15.50
2017-02-09T08:39:13.022Z,15.60
2017-02-09T08:40:13.349Z,15.70
2017-02-09T08:41:14.432Z,15.80
2017-02-09T08:42:13.712Z,15.80
2017-02-09T08:43:13.207Z,15.90
2017-02-09T08:44:12.715Z,16.00
2017-02-09T08:45:13.195Z,16.00
2017-02-09T08:46:12.822Z,16.00
2017-02-09T08:47:13.284Z,16.10
2017-02-09T08:48:12.798Z,16.10
2017-02-09T08:49:14.117Z,16.20
2017-02-09T08:50:12.670Z,16.20
2017-02-09T08:51:12.678Z,16.20
2017-02-09T08:52:14.454Z,16.20
2017-02-09T08:53:12.754Z,16.30
2017-02-09T08:54:14.260Z,16.30
2017-02-09T08:55:12.404Z,16.30
2017-02-09T08:56:12.943Z,16.30
2017-02-09T08:57:12.651Z,16.30
2017-02-09T08:58:13.757Z,16.40
2017-02-09T08:59:09.327Z,16.40
2017-02-09T09:00:12.956Z,16.40
2017-02-09T09:01:12.703Z,16.40
2017-02-09T09:02:13.502Z,16.40
2017-02-09T09:03:14.616Z,16.40
2017-02-09T09:04:14.711Z,16.40
2017-02-09T09:05:14.551Z,16.40
2017-02-09T09:06:13.082Z,16.40
2017-02-09T09:07:12.768Z,16.40
2017-02-09T09:08:12.832Z,16.50
2017-02-09T09:09:13.862Z,16.50
2017-02-09T09:10:14.820Z,16.50
2017-02-09T09:11:13.465Z,16.50
2017-02-09T09:12:13.441Z,16.50
2017-02-09T09:13:13.571Z,16.50
2017-02-09T09:14:14.052Z,16.50
2017-02-09T09:15:12.500Z,16.50
2017-02-09T09:16:11.921Z,16.50
2017-02-09T09:17:13.803Z,16.50
2017-02-09T09:18:13.734Z,16.50
2017-02-09T09:19:14.375Z,16.50
2017-02-09T09:20:15.348Z,16.50
2017-02-09T09:21:13.518Z,16.50
2017-02-09T09:22:14.217Z,16.50
2017-02-09T09:23:13.227Z,16.50
2017-02-09T09:24:13.483Z,16.50
2017-02-09T09:25:09.428Z,16.60
2017-02-09T09:26:13.249Z,16.60
2017-02-09T09:27:12.350Z,16.60
2017-02-09T09:28:12.342Z,16.60
2017-02-09T09:29:12.884Z,16.60
2017-02-09T09:30:10.207Z,16.60
2017-02-09T09:31:13.654Z,16.60
2017-02-09T09:32:12.994Z,16.60
2017-02-09T09:33:11.924Z,16.60
2017-02-09T09:34:13.826Z,16.60
2017-02-09T09:35:13.838Z,16.60
2017-02-09T09:36:12.556Z,16.60
2017-02-09T09:37:12.226Z,16.60
2017-02-09T09:38:11.285Z,16.60
2017-02-09T09:39:13.158Z,16.60
2017-02-09T09:40:13.207Z,16.60
2017-02-09T09:41:13.274Z,16.60
2017-02-09T09:42:13.278Z,16.60
2017-02-09T09:43:13.602Z,16.60
2017-02-09T09:44:11.345Z,16.60
2017-02-09T09:45:12.216Z,16.60
2017-02-09T09:46:11.328Z,16.60
2017-02-09T09:47:09.645Z,16.60
2017-02-09T09:48:12.381Z,16.60
2017-02-09T09:49:12.498Z,16.60
2017-02-09T09:50:12.293Z,16.60
2017-02-09T09:51:13.192Z,16.60
2017-02-09T09:52:13.200Z,16.70
2017-02-09T09:53:12.723Z,16.70
2017-02-09T09:54:11.759Z,16.70
2017-02-09T09:55:13.582Z,16.70
2017-02-09T09:56:13.352Z,16.70
2017-02-09T09:57:09.921Z,16.70
2017-02-09T09:58:09.909Z,16.70
2017-02-09T09:59:12.089Z,16.70
2017-02-09T10:00:11.706Z,16.70
2017-02-09T10:01:14.146Z,16.70
2017-02-09T10:02:12.476Z,16.70
2017-02-09T10:03:13.190Z,16.70
2017-02-09T10:04:11.956Z,16.70
2017-02-09T10:05:10.690Z,16.70
2017-02-09T10:06:13.609Z,16.70
2017-02-09T10:07:12.766Z,16.70
2017-02-09T10:08:12.833Z,16.70
2017-02-09T10:09:11.816Z,16.70
2017-02-09T10:10:10.197Z,16.70
2017-02-09T10:11:12.279Z,16.70
2017-02-09T10:12:12.938Z,16.70
2017-02-09T10:13:13.292Z,16.70
2017-02-09T10:14:10.868Z,16.70
2017-02-09T10:15:12.496Z,16.70
2017-02-09T10:16:12.131Z,16.70
2017-02-09T10:17:13.127Z,16.70
2017-02-09T10:18:12.721Z,16.70
2017-02-09T10:19:13.733Z,16.70
2017-02-09T10:20:13.642Z,16.70
2017-02-09T10:21:12.126Z,16.80
2017-02-09T10:22:11.965Z,16.70
2017-02-09T10:23:13.049Z,16.70
2017-02-09T10:24:12.684Z,16.70
2017-02-09T10:25:12.706Z,16.70
2017-02-09T10:26:12.972Z,16.80
2017-02-09T10:27:13.882Z,16.80
2017-02-09T10:28:11.946Z,16.70
2017-02-09T10:29:12.677Z,16.70
2017-02-09T10:30:11.627Z,16.80
2017-02-09T10:31:12.413Z,16.80
2017-02-09T10:32:12.179Z,16.80
2017-02-09T10:33:13.592Z,16.80
2017-02-09T10:34:14.107Z,16.80
2017-02-09T10:35:11.502Z,16.80
2017-02-09T10:36:14.456Z,16.80
2017-02-09T10:37:14.018Z,16.80
2017-02-09T10:38:13.902Z,16.80
2017-02-09T10:39:10.875Z,16.80
2017-02-09T10:40:11.727Z,16.80
2017-02-09T10:41:12.671Z,16.80
2017-02-09T10:42:10.837Z,16.80
2017-02-09T10:43:12.298Z,16.80
2017-02-09T10:44:12.686Z,16.80
2017-02-09T10:45:13.394Z,16.80
2017-02-09T10:46:10.745Z,16.80
2017-02-09T10:47:13.367Z,16.80
2017-02-09T10:48:12.101Z,16.80
2017-02-09T10:49:12.106Z,16.80
2017-02-09T10:50:11.665Z,16.80
2017-02-09T10:51:13.420Z,16.80
2017-02-09T10:52:12.051Z,16.80
2017-02-09T10:53:12.516Z,16.80
2017-02-09T10:54:12.632Z,16.80
2017-02-09T10:55:12.435Z,16.80
2017-02-09T10:56:12.384Z,16.80
2017-02-09T10:57:12.022Z,16.80
2017-02-09T10:58:13.260Z,16.80
2017-02-09T10:59:11.733Z,16.80
2017-02-09T11:00:11.858Z,16.80
2017-02-09T11:01:12.468Z,16.80
2017-02-09T11:02:11.661Z,16.80
2017-02-09T11:03:15.681Z,16.80
2017-02-09T11:04:13.311Z,16.80
2017-02-09T11:05:12.449Z,16.80
2017-02-09T11:06:14.071Z,16.80
2017-02-09T11:07:12.674Z,16.80
2017-02-09T11:08:12.669Z,16.80
2017-02-09T11:09:13.887Z,16.80
2017-02-09T11:10:13.647Z,16.80
2017-02-09T11:11:09.980Z,16.80
2017-02-09T11:12:12.678Z,16.80
2017-02-09T11:13:13.263Z,16.80
2017-02-09T11:14:12.141Z,16.80
2017-02-09T11:15:12.049Z,16.80
2017-02-09T11:16:11.734Z,16.80
2017-02-09T11:17:14.325Z,16.80
2017-02-09T11:18:12.637Z,16.80
2017-02-09T11:19:12.514Z,16.80
2017-02-09T11:20:14.173Z,16.80
2017-02-09T11:21:13.986Z,16.80
2017-02-09T11:22:13.496Z,16.80
2017-02-09T11:23:13.636Z,16.80
2017-02-09T11:24:13.288Z,16.80
2017-02-09T11:25:12.123Z,16.80
2017-02-09T11:26:12.715Z,16.80
2017-02-09T11:27:14.617Z,16.80
2017-02-09T11:28:12.718Z,16.80
2017-02-09T11:29:12.408Z,16.80
2017-02-09T11:30:12.090Z,16.80
2017-02-09T11:31:12.664Z,16.80
2017-02-09T11:32:12.166Z,16.80
2017-02-09T11:33:11.485Z,16.80
2017-02-09T11:34:11.846Z,16.90
2017-02-09T11:35:13.379Z,16.80
2017-02-09T11:36:12.803Z,16.80
2017-02-09T11:37:14.122Z,16.90
2017-02-09T11:38:11.081Z,16.80
2017-02-09T11:39:12.092Z,16.80
2017-02-09T11:40:11.988Z,16.90
2017-02-09T11:41:11.378Z,16.80
2017-02-09T11:42:09.350Z,16.90
2017-02-09T11:43:12.495Z,16.90
2017-02-09T11:44:12.347Z,16.90
2017-02-09T11:45:11.807Z,16.90
2017-02-09T11:46:11.903Z,16.90
2017-02-09T11:47:12.652Z,16.80
2017-02-09T11:48:12.890Z,16.90
2017-02-09T11:49:12.643Z,16.90
2017-02-09T11:50:12.722Z,16.90
2017-02-09T11:51:12.790Z,16.90
2017-02-09T11:52:11.737Z,16.80
2017-02-09T11:53:13.600Z,16.90
2017-02-09T11:54:12.450Z,16.80
2017-02-09T11:55:12.115Z,16.80
2017-02-09T11:56:11.141Z,16.80
2017-02-09T11:57:08.422Z,16.90
2017-02-09T11:58:13.497Z,16.80
2017-02-09T11:59:11.389Z,16.80
2017-02-09T12:00:12.382Z,16.90
2017-02-09T12:01:12.443Z,16.80
2017-02-09T12:02:11.840Z,16.80
2017-02-09T12:03:12.490Z,16.80
2017-02-09T12:04:13.663Z,16.80
2017-02-09T12:05:12.687Z,16.80
2017-02-09T12:06:11.718Z,16.80
2017-02-09T12:07:12.501Z,16.80
2017-02-09T12:08:12.186Z,16.80
2017-02-09T12:09:11.212Z,16.80
2017-02-09T12:10:11.181Z,16.80
2017-02-09T12:11:12.423Z,16.80
2017-02-09T12:12:12.198Z,16.80
2017-02-09T12:13:08.460Z,16.80
2017-02-09T12:14:11.815Z,16.80
2017-02-09T12:15:11.459Z,16.80
2017-02-09T12:16:11.916Z,16.80
2017-02-09T12:17:12.076Z,16.80
2017-02-09T12:18:11.801Z,16.80
2017-02-09T12:19:13.294Z,16.80
2017-02-09T12:20:11.228Z,16.80
2017-02-09T12:21:11.159Z,16.80
2017-02-09T12:22:11.842Z,16.80
2017-02-09T12:23:11.832Z,16.80
2017-02-09T12:24:12.704Z,16.80
2017-02-09T12:25:11.697Z,16.80
2017-02-09T12:26:12.258Z,16.90
2017-02-09T12:27:12.147Z,16.80
2017-02-09T12:28:11.305Z,16.80
2017-02-09T12:29:13.017Z,16.90
2017-02-09T12:30:12.734Z,16.80
2017-02-09T12:31:11.746Z,16.80
2017-02-09T12:32:09.606Z,16.90
2017-02-09T12:33:12.826Z,16.80
2017-02-09T12:34:10.058Z,16.90
2017-02-09T12:35:12.127Z,16.90
2017-02-09T12:36:11.011Z,16.80
2017-02-09T12:37:11.330Z,16.90
2017-02-09T12:38:11.326Z,16.90
2017-02-09T12:39:12.297Z,16.90
2017-02-09T12:40:12.337Z,16.90
2017-02-09T12:41:11.258Z,16.90
2017-02-09T12:42:11.909Z,16.90
2017-02-09T12:43:11.647Z,16.90
2017-02-09T12:44:12.449Z,16.90
2017-02-09T12:45:13.101Z,16.90
2017-02-09T12:46:12.820Z,16.80
2017-02-09T12:47:10.018Z,16.90
2017-02-09T12:48:13.284Z,16.90
2017-02-09T12:49:13.857Z,16.80
2017-02-09T12:50:09.654Z,16.80
2017-02-09T12:51:11.775Z,16.90
2017-02-09T12:52:11.817Z,16.80
2017-02-09T12:53:11.848Z,16.80
2017-02-09T12:54:13.168Z,16.90
2017-02-09T12:55:12.751Z,16.80
2017-02-09T12:56:12.100Z,16.80
2017-02-09T12:57:11.662Z,16.80
2017-02-09T12:58:11.717Z,16.80
2017-02-09T12:59:11.536Z,16.80
2017-02-09T13:00:13.584Z,16.80
2017-02-09T13:01:13.146Z,16.90
2017-02-09T13:02:11.679Z,16.80
2017-02-09T13:03:11.700Z,16.90
2017-02-09T13:04:14.745Z,16.80
2017-02-09T13:05:12.486Z,16.80
2017-02-09T13:06:11.714Z,16.90
2017-02-09T13:07:12.489Z,16.80
2017-02-09T13:08:12.356Z,16.90
2017-02-09T13:09:11.394Z,16.80
2017-02-09T13:10:11.446Z,16.80
2017-02-09T13:11:12.459Z,16.90
2017-02-09T13:12:11.389Z,16.80
2017-02-09T13:13:11.396Z,16.80
2017-02-09T13:14:11.276Z,16.80
2017-02-09T13:15:11.707Z,16.80
2017-02-09T13:16:12.976Z,16.80
2017-02-09T13:17:12.495Z,16.80
2017-02-09T13:18:09.864Z,16.90
2017-02-09T13:19:11.731Z,16.80
2017-02-09T13:20:12.150Z,16.80
2017-02-09T13:21:11.323Z,16.80
2017-02-09T13:22:12.436Z,16.80
2017-02-09T13:23:11.598Z,16.80
2017-02-09T13:24:11.901Z,16.80
2017-02-09T13:25:13.143Z,16.80
2017-02-09T13:26:11.572Z,16.80
2017-02-09T13:27:13.844Z,16.80
2017-02-09T13:28:11.125Z,16.80
2017-02-09T13:29:11.430Z,16.80
2017-02-09T13:30:13.054Z,16.80
2017-02-09T13:31:11.537Z,16.80
2017-02-09T13:32:11.967Z,16.80
2017-02-09T13:33:14.093Z,16.80
2017-02-09T13:34:12.680Z,16.80
2017-02-09T13:35:09.183Z,16.80
2017-02-09T13:36:12.519Z,16.80
2017-02-09T13:37:12.272Z,16.80
2017-02-09T13:38:11.185Z,16.80
2017-02-09T13:39:11.098Z,16.80
2017-02-09T13:40:12.007Z,16.80
2017-02-09T13:41:11.777Z,16.80
2017-02-09T13:42:13.237Z,16.80
2017-02-09T13:43:12.201Z,16.80
2017-02-09T13:44:11.147Z,16.80
2017-02-09T13:45:11.561Z,16.80
2017-02-09T13:46:12.134Z,16.80
2017-02-09T13:47:11.742Z,16.80
2017-02-09T13:48:12.252Z,16.80
2017-02-09T13:49:11.053Z,16.80
2017-02-09T13:50:11.064Z,16.80
2017-02-09T13:51:11.642Z,16.80
2017-02-09T13:52:10.795Z,16.80
2017-02-09T13:53:12.285Z,16.80
2017-02-09T13:54:11.441Z,16.80
2017-02-09T13:55:12.472Z,16.80
2017-02-09T13:56:11.268Z,16.80
2017-02-09T13:57:11.855Z,16.80
2017-02-09T13:58:11.927Z,16.80
2017-02-09T13:59:12.033Z,16.80
2017-02-09T14:00:11.963Z,16.80
2017-02-09T14:01:11.584Z,16.80
2017-02-09T14:02:12.041Z,16.80
2017-02-09T14:03:11.657Z,16.80
2017-02-09T14:04:12.730Z,16.80
2017-02-09T14:05:12.087Z,16.80
2017-02-09T14:06:11.060Z,16.80
2017-02-09T14:07:12.090Z,16.80
2017-02-09T14:08:11.611Z,16.80
2017-02-09T14:09:12.167Z,16.80
2017-02-09T14:10:10.878Z,16.80
2017-02-09T14:11:14.253Z,16.80
2017-02-09T14:12:11.897Z,16.80
2017-02-09T14:13:12.238Z,16.80
2017-02-09T14:14:11.525Z,16.80
2017-02-09T14:15:11.863Z,16.80
2017-02-09T14:16:13.620Z,16.80
2017-02-09T14:17:14.866Z,16.80
2017-02-09T14:18:11.978Z,16.80
2017-02-09T14:19:11.959Z,16.80
2017-02-09T14:20:11.994Z,16.80
2017-02-09T14:21:13.868Z,16.80
2017-02-09T14:22:12.142Z,16.80
2017-02-09T14:23:11.056Z,16.80
2017-02-09T14:24:11.452Z,16.80
2017-02-09T14:25:11.349Z,16.80
2017-02-09T14:26:11.844Z,16.80
2017-02-09T14:27:12.820Z,16.80
2017-02-09T14:28:12.657Z,16.80
2017-02-09T14:29:12.094Z,16.80
2017-02-09T14:30:12.836Z,16.80
2017-02-09T14:31:13.400Z,16.80
2017-02-09T14:32:12.259Z,16.80
2017-02-09T14:33:09.433Z,16.80
2017-02-09T14:34:11.346Z,16.80
2017-02-09T14:35:11.335Z,16.80
2017-02-09T14:36:09.045Z,16.80
2017-02-09T14:37:10.059Z,16.80
2017-02-09T14:38:09.316Z,16.80
2017-02-09T14:39:11.432Z,16.80
2017-02-09T14:40:13.150Z,16.80
2017-02-09T14:41:12.018Z,16.80
2017-02-09T14:42:13.549Z,16.80
2017-02-09T14:43:11.352Z,16.80
2017-02-09T14:44:12.029Z,16.80
2017-02-09T14:45:11.700Z,16.80
2017-02-09T14:46:09.902Z,16.80
2017-02-09T14:47:13.006Z,16.80
2017-02-09T14:48:12.465Z,16.80
2017-02-09T14:49:12.117Z,16.80
2017-02-09T14:50:11.841Z,16.80
2017-02-09T14:51:13.430Z,16.80
2017-02-09T14:52:12.219Z,16.80
2017-02-09T14:53:11.534Z,16.80
2017-02-09T14:54:13.177Z,16.80
2017-02-09T14:55:11.677Z,16.80
2017-02-09T14:56:12.545Z,16.80
2017-02-09T14:57:11.583Z,16.80
2017-02-09T14:58:10.335Z,16.80
2017-02-09T14:59:12.709Z,16.80
2017-02-09T15:00:12.722Z,16.80
2017-02-09T15:01:11.691Z,16.80
2017-02-09T15:02:12.261Z,16.70
2017-02-09T15:03:11.215Z,16.70
2017-02-09T15:04:11.223Z,16.70
2017-02-09T15:05:13.418Z,16.70
2017-02-09T15:06:09.116Z,16.70
2017-02-09T15:07:12.038Z,16.70
2017-02-09T15:08:12.022Z,16.70
2017-02-09T15:09:12.015Z,16.70
2017-02-09T15:10:09.742Z,16.60
2017-02-09T15:11:10.983Z,16.60
2017-02-09T15:12:12.537Z,16.60
2017-02-09T15:13:13.067Z,16.60
2017-02-09T15:14:10.882Z,16.60
2017-02-09T15:15:11.416Z,16.60
2017-02-09T15:16:12.255Z,16.60
2017-02-09T15:17:09.698Z,16.60
2017-02-09T15:18:09.713Z,16.60
2017-02-09T15:19:11.703Z,16.60
2017-02-09T15:20:12.417Z,16.60
2017-02-09T15:21:12.336Z,16.60
2017-02-09T15:22:11.951Z,16.60
2017-02-09T15:23:12.085Z,16.60
2017-02-09T15:24:11.102Z,16.60
2017-02-09T15:25:11.836Z,16.60
2017-02-09T15:26:11.744Z,16.60
2017-02-09T15:27:11.679Z,16.60
2017-02-09T15:28:11.754Z,16.60
2017-02-09T15:29:13.258Z,16.60
2017-02-09T15:30:12.981Z,16.60
2017-02-09T15:31:11.878Z,16.50
2017-02-09T15:32:11.798Z,16.50
2017-02-09T15:33:11.724Z,16.50
2017-02-09T15:34:12.450Z,16.60
2017-02-09T15:35:11.793Z,16.50
2017-02-09T15:36:12.679Z,16.50
2017-02-09T15:37:11.527Z,16.50
2017-02-09T15:38:11.803Z,16.50
2017-02-09T15:39:12.213Z,16.60
2017-02-09T15:40:11.825Z,16.50
2017-02-09T15:41:09.634Z,16.50
2017-02-09T15:42:12.480Z,16.50
2017-02-09T15:43:12.535Z,16.50
2017-02-09T15:44:11.561Z,16.50
2017-02-09T15:45:11.586Z,16.50
2017-02-09T15:46:12.385Z,16.50
2017-02-09T15:47:11.725Z,16.50
2017-02-09T15:48:11.322Z,16.50
2017-02-09T15:49:12.566Z,16.50
2017-02-09T15:50:11.505Z,16.50
2017-02-09T15:51:12.116Z,16.50
2017-02-09T15:52:11.839Z,16.50
2017-02-09T15:53:12.738Z,16.50
2017-02-09T15:54:12.479Z,16.50
2017-02-09T15:55:12.102Z,16.50
2017-02-09T15:56:11.034Z,16.50
2017-02-09T15:57:11.825Z,16.50
2017-02-09T15:58:13.030Z,16.50
2017-02-09T15:59:12.722Z,16.50
2017-02-09T16:00:11.573Z,16.50
2017-02-09T16:01:11.883Z,16.50
2017-02-09T16:02:11.213Z,16.50
2017-02-09T16:03:11.837Z,16.50
2017-02-09T16:04:11.884Z,16.50
2017-02-09T16:05:14.626Z,16.50
2017-02-09T16:06:13.298Z,16.50
2017-02-09T16:07:12.111Z,16.50
2017-02-09T16:08:10.998Z,16.50
2017-02-09T16:09:11.519Z,16.50
2017-02-09T16:10:11.929Z,16.50
2017-02-09T16:11:11.775Z,16.50
2017-02-09T16:12:12.364Z,16.50
2017-02-09T16:13:12.104Z,16.50
2017-02-09T16:14:11.851Z,16.50
2017-02-09T16:15:11.877Z,16.50
2017-02-09T16:16:13.468Z,16.50
2017-02-09T16:17:12.411Z,16.50
2017-02-09T16:18:12.081Z,16.50
2017-02-09T16:19:11.595Z,16.50
2017-02-09T16:20:11.378Z,16.50
2017-02-09T16:21:12.106Z,16.50
2017-02-09T16:22:09.525Z,16.50
2017-02-09T16:23:12.377Z,16.50
2017-02-09T16:24:11.342Z,16.50
2017-02-09T16:25:11.335Z,16.50
2017-02-09T16:26:12.567Z,16.50
2017-02-09T16:27:12.058Z,16.50
2017-02-09T16:28:13.090Z,16.50
2017-02-09T16:29:11.526Z,16.50
2017-02-09T16:30:13.849Z,16.50
2017-02-09T16:31:13.617Z,16.40
2017-02-09T16:32:11.887Z,16.50
2017-02-09T16:33:13.303Z,16.50
2017-02-09T16:34:11.940Z,16.50
2017-02-09T16:35:11.925Z,16.50
2017-02-09T16:36:11.642Z,16.50
2017-02-09T16:37:12.383Z,16.50
2017-02-09T16:38:13.046Z,16.50
2017-02-09T16:39:10.968Z,16.50
2017-02-09T16:40:12.485Z,16.50
2017-02-09T16:41:11.322Z,16.50
2017-02-09T16:42:12.939Z,16.50
2017-02-09T16:43:10.949Z,16.40
2017-02-09T16:44:10.096Z,16.50
2017-02-09T16:45:12.232Z,16.40
2017-02-09T16:46:09.007Z,16.40
2017-02-09T16:47:11.373Z,16.40
2017-02-09T16:48:11.892Z,16.40
2017-02-09T16:49:12.529Z,16.40
2017-02-09T16:50:11.377Z,16.40
2017-02-09T16:51:12.115Z,16.40
2017-02-09T16:52:10.831Z,16.40
2017-02-09T16:53:11.671Z,16.40
2017-02-09T16:54:11.566Z,16.40
2017-02-09T16:55:11.405Z,16.40
2017-02-09T16:56:12.252Z,16.40
2017-02-09T16:57:11.695Z,16.40
2017-02-09T16:58:13.574Z,16.40
2017-02-09T16:59:12.059Z,16.40
2017-02-09T17:00:11.073Z,16.40
2017-02-09T17:01:12.921Z,16.40
2017-02-09T17:02:12.779Z,16.40
2017-02-09T17:03:11.684Z,16.40
2017-02-09T17:04:11.949Z,16.40
2017-02-09T17:05:11.778Z,16.40
2017-02-09T17:06:11.787Z,16.40
2017-02-09T17:07:11.828Z,16.40
2017-02-09T17:08:10.219Z,16.40
2017-02-09T17:09:12.948Z,16.40
2017-02-09T17:10:12.427Z,16.40
2017-02-09T17:11:11.387Z,16.40
2017-02-09T17:12:11.266Z,16.40
2017-02-09T17:13:11.609Z,16.40
2017-02-09T17:14:11.585Z,16.40
2017-02-09T17:15:09.818Z,16.40
2017-02-09T17:16:11.668Z,16.40
2017-02-09T17:17:12.476Z,16.40
2017-02-09T17:18:12.306Z,16.40
2017-02-09T17:19:11.882Z,16.40
2017-02-09T17:20:14.574Z,16.40
2017-02-09T17:21:11.482Z,16.40
2017-02-09T17:22:12.402Z,16.40
2017-02-09T17:23:11.749Z,16.40
2017-02-09T17:24:12.640Z,16.40
2017-02-09T17:25:12.470Z,16.40
2017-02-09T17:26:12.096Z,16.40
2017-02-09T17:27:11.120Z,16.40
2017-02-09T17:28:12.116Z,16.40
2017-02-09T17:29:11.617Z,16.40
2017-02-09T17:30:12.136Z,16.40
2017-02-09T17:31:11.068Z,16.40
2017-02-09T17:32:11.059Z,16.40
2017-02-09T17:33:10.921Z,16.40
2017-02-09T17:34:12.186Z,16.40
2017-02-09T17:35:12.832Z,16.40
2017-02-09T17:36:10.196Z,16.40
2017-02-09T17:37:09.839Z,16.40
2017-02-09T17:38:11.412Z,16.40
2017-02-09T17:39:11.358Z,16.30
2017-02-09T17:40:11.910Z,16.40
2017-02-09T17:41:11.841Z,16.40
2017-02-09T17:42:12.503Z,16.40
2017-02-09T17:43:13.105Z,16.40
2017-02-09T17:44:11.447Z,16.40
2017-02-09T17:45:11.821Z,16.40
2017-02-09T17:46:09.547Z,16.40
2017-02-09T17:47:11.782Z,16.40
2017-02-09T17:48:10.216Z,16.40
2017-02-09T17:49:09.310Z,16.40
2017-02-09T17:50:12.408Z,16.40
2017-02-09T17:51:12.108Z,16.40
2017-02-09T17:52:11.573Z,16.30
2017-02-09T17:53:12.058Z,16.40
2017-02-09T17:54:11.064Z,16.40
2017-02-09T17:55:11.543Z,16.40
2017-02-09T17:56:11.582Z,16.40
2017-02-09T17:57:09.992Z,16.40
2017-02-09T17:58:11.471Z,16.30
2017-02-09T17:59:11.381Z,16.40
2017-02-09T18:00:11.401Z,16.40
2017-02-09T18:01:12.121Z,16.40
2017-02-09T18:02:11.871Z,16.40
2017-02-09T18:03:11.817Z,16.40
2017-02-09T18:04:11.884Z,16.40
2017-02-09T18:05:12.625Z,16.40
2017-02-09T18:06:11.431Z,16.40
2017-02-09T18:07:13.309Z,16.40
2017-02-09T18:08:11.662Z,16.40
2017-02-09T18:09:12.190Z,16.40
2017-02-09T18:10:11.856Z,16.40
2017-02-09T18:11:11.799Z,16.30
2017-02-09T18:12:11.921Z,16.30
2017-02-09T18:13:12.659Z,16.30
2017-02-09T18:14:11.529Z,16.40
2017-02-09T18:15:13.053Z,16.40
2017-02-09T18:16:10.971Z,16.40
2017-02-09T18:17:14.626Z,16.30
2017-02-09T18:18:11.700Z,16.30
2017-02-09T18:19:12.439Z,16.30
2017-02-09T18:20:12.119Z,16.30
2017-02-09T18:21:11.353Z,16.30
2017-02-09T18:22:11.402Z,16.30
2017-02-09T18:23:11.400Z,16.30
2017-02-09T18:24:11.757Z,16.30
2017-02-09T18:25:13.817Z,16.30
2017-02-09T18:26:12.392Z,16.30
2017-02-09T18:27:12.920Z,16.30
2017-02-09T18:28:12.058Z,16.30
2017-02-09T18:29:10.899Z,16.40
2017-02-09T18:30:12.477Z,16.40
2017-02-09T18:31:11.319Z,16.40
2017-02-09T18:32:11.334Z,16.50
2017-02-09T18:33:11.666Z,16.50
2017-02-09T18:34:13.559Z,16.50
2017-02-09T18:35:12.073Z,16.60
2017-02-09T18:36:11.082Z,16.60
2017-02-09T18:37:12.713Z,16.60
2017-02-09T18:38:11.676Z,16.60
2017-02-09T18:39:12.589Z,16.60
2017-02-09T18:40:13.256Z,16.70
2017-02-09T18:41:11.955Z,16.70
2017-02-09T18:42:12.561Z,16.70
2017-02-09T18:43:12.153Z,16.70
2017-02-09T18:44:11.079Z,16.70
2017-02-09T18:45:11.725Z,16.70
2017-02-09T18:46:11.639Z,16.70
2017-02-09T18:47:11.642Z,16.70
2017-02-09T18:48:12.553Z,16.80
2017-02-09T18:49:11.498Z,16.80
2017-02-09T18:50:13.276Z,16.80
2017-02-09T18:51:11.352Z,16.80
2017-02-09T18:52:11.718Z,16.70
2017-02-09T18:53:13.389Z,16.70
2017-02-09T18:54:11.394Z,16.70
2017-02-09T18:55:12.424Z,16.60
2017-02-09T18:56:12.061Z,16.60
2017-02-09T18:57:11.908Z,16.60
2017-02-09T18:58:13.204Z,16.60
2017-02-09T18:59:14.666Z,16.60
2017-02-09T19:00:12.109Z,16.60
2017-02-09T19:01:10.971Z,16.60
2017-02-09T19:02:11.792Z,16.50
2017-02-09T19:03:12.455Z,16.50
2017-02-09T19:04:13.178Z,16.50
2017-02-09T19:05:11.935Z,16.50
2017-02-09T19:06:14.647Z,16.50
2017-02-09T19:07:12.157Z,16.50
2017-02-09T19:08:11.070Z,16.50
2017-02-09T19:09:11.795Z,16.50
2017-02-09T19:10:09.983Z,16.50
2017-02-09T19:11:12.266Z,16.50
2017-02-09T19:12:12.975Z,16.50
2017-02-09T19:13:10.205Z,16.50
2017-02-09T19:14:11.615Z,16.50
2017-02-09T19:15:12.107Z,16.50
2017-02-09T19:16:11.801Z,16.50
2017-02-09T19:17:12.984Z,16.50
2017-02-09T19:18:11.883Z,16.50
2017-02-09T19:19:12.756Z,16.50
2017-02-09T19:20:11.711Z,16.50
2017-02-09T19:21:12.419Z,16.50
2017-02-09T19:22:12.006Z,16.50
2017-02-09T19:23:10.883Z,16.50
2017-02-09T19:24:13.540Z,16.50
2017-02-09T19:25:12.157Z,16.50
2017-02-09T19:26:11.096Z,16.50
2017-02-09T19:27:11.764Z,16.50
2017-02-09T19:28:11.895Z,16.50
2017-02-09T19:29:13.808Z,16.50
2017-02-09T19:30:11.780Z,16.50
2017-02-09T19:31:12.688Z,16.50
2017-02-09T19:32:13.347Z,16.50
2017-02-09T19:33:11.932Z,16.50
2017-02-09T19:34:11.604Z,16.50
2017-02-09T19:35:12.046Z,16.50
2017-02-09T19:36:11.386Z,16.50
2017-02-09T19:37:11.641Z,16.50
2017-02-09T19:38:11.695Z,16.50
2017-02-09T19:39:12.267Z,16.50
2017-02-09T19:40:11.774Z,16.50
2017-02-09T19:41:13.428Z,16.50
2017-02-09T19:42:12.187Z,16.50
2017-02-09T19:43:13.999Z,16.50
2017-02-09T19:44:12.558Z,16.50
2017-02-09T19:45:09.302Z,16.50
2017-02-09T19:46:11.557Z,16.50
2017-02-09T19:47:11.829Z,16.50
2017-02-09T19:48:13.490Z,16.50
2017-02-09T19:49:12.125Z,16.50
2017-02-09T19:50:12.707Z,16.50
2017-02-09T19:51:11.677Z,16.50
2017-02-09T19:52:12.565Z,16.50
2017-02-09T19:53:13.088Z,16.50
2017-02-09T19:54:12.805Z,16.50
2017-02-09T19:55:12.453Z,16.50
2017-02-09T19:56:09.950Z,16.50
2017-02-09T19:57:11.183Z,16.50
2017-02-09T19:58:11.765Z,16.50
2017-02-09T19:59:11.859Z,16.50
2017-02-09T20:00:13.449Z,16.50
2017-02-09T20:01:12.093Z,16.50
2017-02-09T20:02:12.576Z,16.50
2017-02-09T20:03:12.245Z,16.50
2017-02-09T20:04:11.074Z,16.50
2017-02-09T20:05:11.066Z,16.50
2017-02-09T20:06:10.942Z,16.50
2017-02-09T20:07:12.490Z,16.50
2017-02-09T20:08:12.111Z,16.50
2017-02-09T20:09:11.340Z,16.50
2017-02-09T20:10:12.107Z,16.50
2017-02-09T20:11:12.223Z,16.50
2017-02-09T20:12:11.277Z,16.50
2017-02-09T20:13:12.551Z,16.50
2017-02-09T20:14:11.459Z,16.50
2017-02-09T20:15:12.027Z,16.50
2017-02-09T20:16:11.919Z,16.50
2017-02-09T20:17:11.863Z,16.50
2017-02-09T20:18:12.498Z,16.50
2017-02-09T20:19:12.032Z,16.50
2017-02-09T20:20:11.042Z,16.50
2017-02-09T20:21:13.901Z,16.50
2017-02-09T20:22:13.308Z,16.50
2017-02-09T20:23:12.760Z,16.50
2017-02-09T20:24:13.343Z,16.50
2017-02-09T20:25:11.652Z,16.50
2017-02-09T20:26:11.550Z,16.50
2017-02-09T20:27:12.575Z,16.50
2017-02-09T20:28:11.737Z,16.50
2017-02-09T20:29:12.317Z,16.50
2017-02-09T20:30:12.512Z,16.50
2017-02-09T20:31:11.980Z,16.50
2017-02-09T20:32:12.742Z,16.50
2017-02-09T20:33:12.341Z,16.50
2017-02-09T20:34:13.003Z,16.50
2017-02-09T20:35:11.770Z,16.50
2017-02-09T20:36:12.523Z,16.50
2017-02-09T20:37:11.413Z,16.50
2017-02-09T20:38:11.337Z,16.50
2017-02-09T20:39:11.204Z,16.50
2017-02-09T20:40:11.639Z,16.50
2017-02-09T20:41:12.624Z,16.50
2017-02-09T20:42:12.125Z,16.50
2017-02-09T20:43:11.606Z,16.50
2017-02-09T20:44:13.202Z,16.50
2017-02-09T20:45:12.841Z,16.40
2017-02-09T20:46:11.854Z,16.40
2017-02-09T20:47:12.729Z,16.50
2017-02-09T20:48:11.557Z,16.40
2017-02-09T20:49:11.511Z,16.40
2017-02-09T20:50:11.371Z,16.40
2017-02-09T20:51:11.411Z,16.40
2017-02-09T20:52:12.125Z,16.40
2017-02-09T20:53:11.051Z,16.40
2017-02-09T20:54:11.557Z,16.40
2017-02-09T20:55:12.169Z,16.40
2017-02-09T20:56:12.202Z,16.50
2017-02-09T20:57:11.036Z,16.40
2017-02-09T20:58:11.739Z,16.40
2017-02-09T20:59:11.700Z,16.40
2017-02-09T21:00:12.013Z,16.40
2017-02-09T21:01:08.763Z,16.40
2017-02-09T21:02:11.578Z,16.50
2017-02-09T21:03:12.437Z,16.40
2017-02-09T21:04:11.418Z,16.40
2017-02-09T21:05:11.380Z,16.40
2017-02-09T21:06:11.914Z,16.40
2017-02-09T21:07:11.876Z,16.50
2017-02-09T21:08:12.395Z,16.50
2017-02-09T21:09:13.132Z,16.50
2017-02-09T21:10:11.635Z,16.50
2017-02-09T21:11:12.144Z,16.50
2017-02-09T21:12:08.805Z,16.50
2017-02-09T21:13:11.683Z,16.50
2017-02-09T21:14:11.690Z,16.40
2017-02-09T21:15:11.793Z,16.40
2017-02-09T21:16:12.471Z,16.50
2017-02-09T21:17:12.128Z,16.50
2017-02-09T21:18:11.157Z,16.50
2017-02-09T21:19:11.471Z,16.50
2017-02-09T21:20:09.084Z,16.50